Time;durP1;ratioP1;P1;durP2;ratioP2;P2;SDS_P1;SDS_P2;PMS_P1;PMS_P2;Temp;Humidity;BMP_temperature;BMP_pressure;BME280_temperature;BME280_humidity;BME280_pressure;Samples;Min_cycle;Max_cycle;Signal;HPM_P1;HPM_P2
2022/10/19 00:01:14;;;;;;;22.80;11.70;;;12.60;70.60;;;;;;5002069;28;20559;-82
2022/10/19 00:03:47;;;;;;;24.03;12.13;;;12.50;70.40;;;;;;4996545;28;20197;-81
2022/10/19 00:06:19;;;;;;;24.57;12.23;;;12.50;70.50;;;;;;4994820;28;20252;-83
2022/10/19 00:08:47;;;;;;;25.40;12.50;;;12.50;70.60;;;;;;5001487;28;20681;-82
2022/10/19 00:11:15;;;;;;;20.33;11.33;;;12.40;70.50;;;;;;4996458;28;20311;-81
2022/10/19 00:13:43;;;;;;;29.63;13.07;;;12.40;71.40;;;;;;5002224;28;20223;-83
2022/10/19 00:16:14;;;;;;;23.73;12.13;;;12.40;70.50;;;;;;4998347;28;20220;-83
2022/10/19 00:18:45;;;;;;;22.03;12.13;;;12.30;70.50;;;;;;4997110;28;20192;-82
2022/10/19 00:21:16;;;;;;;25.53;12.00;;;12.30;70.70;;;;;;4999639;28;20256;-82
2022/10/19 00:23:45;;;;;;;23.93;11.93;;;12.30;70.70;;;;;;5001593;28;20604;-82
2022/10/19 00:26:14;;;;;;;23.50;11.53;;;12.30;70.80;;;;;;4994158;28;20250;-82
2022/10/19 00:28:42;;;;;;;28.90;10.87;;;12.20;70.70;;;;;;4999638;28;20293;-82
2022/10/19 00:31:13;;;;;;;25.93;11.50;;;12.20;70.70;;;;;;4995881;28;20716;-79
2022/10/19 00:33:43;;;;;;;22.47;10.40;;;12.20;70.70;;;;;;4991702;28;20193;-81
2022/10/19 00:36:17;;;;;;;18.03;10.23;;;12.20;70.70;;;;;;4990556;28;20325;-82
2022/10/19 00:38:45;;;;;;;22.37;10.67;;;12.20;70.70;;;;;;4994247;28;20578;-82
2022/10/19 00:41:14;;;;;;;18.87;9.83;;;12.20;70.70;;;;;;4994186;28;20280;-82
2022/10/19 00:43:55;;;;;;;20.53;10.00;;;12.20;70.80;;;;;;4989405;28;20196;-81
2022/10/19 00:46:24;;;;;;;20.37;10.13;;;12.10;70.70;;;;;;4989520;28;20189;-82
2022/10/19 00:48:56;;;;;;;23.47;10.47;;;12.10;70.70;;;;;;4990962;28;20613;-81
2022/10/19 00:51:27;;;;;;;24.17;10.03;;;12.10;70.80;;;;;;4995524;28;20244;-82
2022/10/19 00:53:57;;;;;;;18.83;9.63;;;12.00;71.00;;;;;;4996678;28;20544;-81
2022/10/19 00:56:25;;;;;;;18.13;10.23;;;12.00;71.10;;;;;;4993171;28;20237;-81
2022/10/19 00:58:53;;;;;;;19.93;9.57;;;12.00;71.40;;;;;;4994480;28;20201;-80
2022/10/19 01:01:24;;;;;;;17.73;9.50;;;12.00;71.40;;;;;;5000338;28;20247;-81
2022/10/19 01:03:52;;;;;;;17.73;9.93;;;12.00;71.40;;;;;;4997366;28;20184;-80
2022/10/19 01:06:21;;;;;;;14.77;8.50;;;11.90;71.30;;;;;;4995730;28;20288;-81
2022/10/19 01:08:50;;;;;;;23.47;10.73;;;11.90;71.30;;;;;;4997429;28;20213;-80
2022/10/19 01:11:31;;;;;;;16.77;8.90;;;11.90;71.40;;;;;;5002916;28;20787;-81
2022/10/19 01:14:13;;;;;;;19.13;10.80;;;11.90;71.60;;;;;;5003271;28;20596;-82
2022/10/19 01:16:50;;;;;;;20.33;10.10;;;11.80;71.60;;;;;;4998221;28;20193;-82
2022/10/19 01:19:45;;;;;;;19.07;10.00;;;11.80;71.60;;;;;;4996776;28;20197;-81
2022/10/19 01:22:27;;;;;;;19.90;9.63;;;11.80;71.60;;;;;;4985567;28;20268;-80
2022/10/19 01:25:10;;;;;;;15.60;9.27;;;11.80;71.70;;;;;;4992343;28;20284;-81
2022/10/19 01:28:08;;;;;;;21.03;10.53;;;11.80;71.70;;;;;;4994812;28;20189;-81
2022/10/19 01:30:45;;;;;;;21.37;10.33;;;11.70;71.70;;;;;;5000255;28;20249;-80
2022/10/19 01:33:32;;;;;;;17.77;9.70;;;11.70;71.70;;;;;;4992970;28;20192;-79
2022/10/19 01:36:09;;;;;;;25.00;10.13;;;11.70;71.80;;;;;;4999583;28;20250;-82
2022/10/19 01:38:46;;;;;;;17.80;9.43;;;11.70;71.90;;;;;;5000930;28;20219;-83
2022/10/19 01:41:18;;;;;;;26.07;11.50;;;11.60;71.80;;;;;;4999339;28;20227;-82
2022/10/19 01:43:53;;;;;;;21.83;10.97;;;11.60;71.80;;;;;;4997594;28;20219;-82
2022/10/19 01:46:29;;;;;;;22.57;9.90;;;11.60;71.90;;;;;;4997936;28;20330;-82
2022/10/19 01:49:05;;;;;;;24.17;10.33;;;11.60;71.90;;;;;;4997401;28;20231;-82
2022/10/19 01:51:37;;;;;;;21.53;11.33;;;11.60;71.90;;;;;;4998337;28;20240;-81
2022/10/19 01:54:09;;;;;;;17.80;10.27;;;11.60;72.00;;;;;;5002773;28;20288;-78
2022/10/19 01:56:41;;;;;;;20.37;10.97;;;11.50;72.10;;;;;;4995123;28;20276;-81
2022/10/19 01:59:11;;;;;;;23.37;11.93;;;11.50;72.20;;;;;;4995819;28;20235;-82
2022/10/19 02:01:44;;;;;;;30.93;13.40;;;11.50;72.40;;;;;;5002806;28;20188;-81
2022/10/19 02:04:15;;;;;;;25.90;13.13;;;11.40;72.60;;;;;;4998940;28;20200;-81
2022/10/19 02:06:44;;;;;;;26.10;12.67;;;11.40;72.80;;;;;;4998556;28;20276;-80
2022/10/19 02:09:16;;;;;;;26.03;13.23;;;11.30;73.10;;;;;;5001505;28;21279;-82
2022/10/19 02:11:47;;;;;;;28.00;13.40;;;11.30;73.30;;;;;;4993947;28;20216;-81
2022/10/19 02:14:22;;;;;;;25.23;13.17;;;11.30;73.30;;;;;;5001631;28;20568;-82
2022/10/19 02:16:57;;;;;;;22.30;12.53;;;11.30;73.30;;;;;;4990471;28;20232;-81
2022/10/19 02:19:25;;;;;;;26.27;13.30;;;11.30;73.40;;;;;;4997589;28;20197;-82
2022/10/19 02:21:54;;;;;;;29.40;13.17;;;11.30;73.40;;;;;;4993116;28;20729;-81
2022/10/19 02:24:22;;;;;;;25.83;13.17;;;11.20;73.40;;;;;;5002946;28;20227;-82
2022/10/19 02:26:51;;;;;;;27.10;12.77;;;11.20;73.50;;;;;;5000216;28;20287;-79
2022/10/19 02:29:20;;;;;;;32.17;13.70;;;11.20;73.60;;;;;;4994185;28;20685;-82
2022/10/19 02:31:49;;;;;;;22.50;13.30;;;11.20;73.90;;;;;;5001594;28;20252;-82
2022/10/19 02:34:18;;;;;;;24.40;13.37;;;11.20;74.10;;;;;;5002307;28;20201;-82
2022/10/19 02:36:47;;;;;;;25.40;13.83;;;11.20;74.00;;;;;;4995053;28;20277;-82
2022/10/19 02:39:15;;;;;;;24.87;12.90;;;11.10;73.90;;;;;;5005923;28;20279;-81
2022/10/19 02:41:49;;;;;;;30.00;13.97;;;11.20;74.00;;;;;;4998808;28;20196;-80
2022/10/19 02:44:26;;;;;;;28.07;13.43;;;11.10;74.00;;;;;;4997392;28;20236;-82
2022/10/19 02:46:59;;;;;;;31.40;13.80;;;11.10;74.10;;;;;;4998335;28;20247;-81
2022/10/19 02:49:30;;;;;;;22.53;12.87;;;11.10;74.10;;;;;;4990669;28;20782;-77
2022/10/19 02:52:01;;;;;;;27.87;12.93;;;11.10;74.20;;;;;;4993351;28;20315;-81
2022/10/19 02:54:30;;;;;;;24.90;13.03;;;11.10;74.30;;;;;;5001454;28;20229;-80
2022/10/19 02:56:58;;;;;;;23.40;12.70;;;11.10;74.50;;;;;;5004748;28;20608;-81
2022/10/19 02:59:27;;;;;;;30.60;14.47;;;11.10;74.60;;;;;;5000150;28;20273;-81
2022/10/19 03:01:55;;;;;;;21.47;12.70;;;11.00;74.50;;;;;;4999373;28;20227;-80
2022/10/19 03:04:24;;;;;;;25.67;13.90;;;11.00;74.60;;;;;;5003409;28;20291;-79
2022/10/19 03:06:53;;;;;;;25.50;12.73;;;11.00;74.70;;;;;;4999033;28;20295;-80
2022/10/19 03:09:21;;;;;;;30.50;13.23;;;11.00;75.00;;;;;;5011835;28;20277;-80
2022/10/19 03:11:50;;;;;;;25.37;12.73;;;11.00;75.30;;;;;;5002465;28;20665;-80
2022/10/19 03:14:18;;;;;;;28.10;13.83;;;10.90;75.50;;;;;;4999739;28;20728;-80
2022/10/19 03:16:46;;;;;;;28.40;13.90;;;10.90;76.60;;;;;;5003616;28;20620;-82
2022/10/19 03:19:14;;;;;;;26.83;13.17;;;10.90;76.20;;;;;;5005175;28;20279;-81
2022/10/19 03:21:43;;;;;;;27.50;13.50;;;10.80;76.20;;;;;;5003598;28;20750;-79
2022/10/19 03:24:13;;;;;;;28.73;12.90;;;10.80;76.40;;;;;;5001345;28;20284;-81
2022/10/19 03:26:41;;;;;;;28.63;13.67;;;10.80;76.80;;;;;;5003277;28;20254;-81
2022/10/19 03:29:09;;;;;;;23.60;12.87;;;10.70;77.00;;;;;;5007263;28;20205;-81
2022/10/19 03:31:38;;;;;;;29.87;13.67;;;10.70;77.30;;;;;;4998209;28;20232;-81
2022/10/19 03:34:06;;;;;;;32.73;13.67;;;10.60;77.60;;;;;;4996876;28;20229;-79
2022/10/19 03:36:37;;;;;;;24.97;12.20;;;10.60;77.90;;;;;;5002304;28;20264;-82
2022/10/19 03:39:08;;;;;;;22.03;12.67;;;10.60;77.80;;;;;;4995124;28;20639;-83
2022/10/19 03:41:39;;;;;;;29.20;13.23;;;10.60;77.60;;;;;;4989311;28;20224;-82
2022/10/19 03:44:08;;;;;;;25.77;13.27;;;10.50;77.50;;;;;;4997471;28;20220;-81
2022/10/19 03:46:38;;;;;;;32.20;13.33;;;10.50;77.60;;;;;;4999508;28;20260;-82
2022/10/19 03:49:06;;;;;;;35.67;14.07;;;10.50;77.90;;;;;;5000934;28;20197;-81
2022/10/19 03:51:35;;;;;;;31.57;15.40;;;10.50;78.20;;;;;;4997749;28;20272;-82
2022/10/19 03:54:06;;;;;;;26.43;13.80;;;10.50;78.40;;;;;;4999563;28;20327;-82
2022/10/19 03:56:35;;;;;;;26.80;13.50;;;10.50;78.50;;;;;;4997053;28;20236;-83
2022/10/19 03:59:06;;;;;;;21.80;13.13;;;10.50;78.70;;;;;;5002062;28;20224;-82
2022/10/19 04:01:36;;;;;;;26.47;13.70;;;10.50;78.70;;;;;;4998519;28;20285;-83
2022/10/19 04:04:07;;;;;;;25.67;13.23;;;10.40;78.50;;;;;;5000196;28;20639;-82
2022/10/19 04:06:38;;;;;;;25.63;12.93;;;10.40;78.50;;;;;;5003143;28;20684;-79
2022/10/19 04:09:08;;;;;;;31.17;14.10;;;10.40;78.50;;;;;;4994167;28;20600;-80
2022/10/19 04:11:36;;;;;;;27.33;13.00;;;10.40;78.80;;;;;;4999311;28;20664;-80
2022/10/19 04:14:05;;;;;;;32.23;14.57;;;10.40;79.10;;;;;;4993904;28;20666;-80
2022/10/19 04:16:34;;;;;;;29.00;13.93;;;10.40;79.30;;;;;;5006367;28;20223;-80
2022/10/19 04:19:02;;;;;;;25.67;13.87;;;10.30;79.40;;;;;;5002635;28;20220;-81
2022/10/19 04:21:33;;;;;;;23.80;13.90;;;10.30;79.60;;;;;;5000532;28;20189;-81
2022/10/19 04:24:03;;;;;;;29.93;14.80;;;10.30;79.70;;;;;;4996956;28;20190;-80
2022/10/19 04:26:33;;;;;;;27.37;14.07;;;10.20;79.80;;;;;;5022038;28;20223;-79
2022/10/19 04:29:01;;;;;;;26.70;13.83;;;10.20;80.00;;;;;;4999516;28;20262;-80
2022/10/19 04:31:31;;;;;;;27.83;13.77;;;10.20;80.20;;;;;;5004671;28;20307;-79
2022/10/19 04:33:59;;;;;;;28.47;15.30;;;10.10;80.50;;;;;;4997631;28;20213;-80
2022/10/19 04:36:28;;;;;;;36.63;14.27;;;10.10;80.70;;;;;;4994577;28;20255;-81
2022/10/19 04:38:56;;;;;;;31.50;14.67;;;10.10;81.10;;;;;;4996752;28;20188;-79
2022/10/19 04:41:24;;;;;;;37.30;14.40;;;10.10;81.30;;;;;;5005555;28;20246;-79
2022/10/19 04:43:57;;;;;;;32.93;14.87;;;10.00;81.40;;;;;;5007392;28;20251;-78
2022/10/19 04:46:27;;;;;;;31.30;14.87;;;10.00;81.40;;;;;;5002904;28;20228;-78
2022/10/19 04:48:58;;;;;;;26.30;13.87;;;10.00;81.70;;;;;;4993388;28;20359;-77
2022/10/19 04:51:27;;;;;;;30.27;14.47;;;10.00;82.00;;;;;;5004407;28;20189;-79
2022/10/19 04:53:57;;;;;;;30.13;12.87;;;10.00;82.30;;;;;;4994583;28;20256;-79
2022/10/19 04:56:28;;;;;;;26.70;14.47;;;10.00;82.50;;;;;;4993098;28;20199;-79
2022/10/19 04:58:57;;;;;;;25.90;13.53;;;10.00;82.50;;;;;;5007822;28;20600;-80
2022/10/19 05:01:26;;;;;;;30.50;13.30;;;10.00;82.40;;;;;;5004760;28;20224;-79
2022/10/19 05:03:58;;;;;;;32.87;14.03;;;10.00;82.60;;;;;;4999800;28;20194;-79
2022/10/19 05:06:27;;;;;;;34.77;14.83;;;9.90;82.70;;;;;;4990635;28;20244;-78
2022/10/19 05:08:55;;;;;;;33.73;14.20;;;10.00;82.90;;;;;;5006002;28;20673;-77
2022/10/19 05:11:23;;;;;;;30.50;16.23;;;10.00;82.90;;;;;;5002460;28;20666;-79
2022/10/19 05:13:52;;;;;;;30.40;16.77;;;10.00;83.20;;;;;;5000050;28;20272;-80
2022/10/19 05:16:22;;;;;;;39.33;15.47;;;10.00;83.10;;;;;;5002370;28;20720;-75
2022/10/19 05:18:52;;;;;;;87.43;27.60;;;10.00;83.10;;;;;;4997487;28;20628;-79
2022/10/19 05:21:22;;;;;;;37.90;19.97;;;10.00;83.30;;;;;;4999023;28;20243;-78
2022/10/19 05:23:52;;;;;;;43.87;21.37;;;10.00;83.50;;;;;;5001365;28;20284;-76
2022/10/19 05:26:22;;;;;;;40.97;26.33;;;10.00;83.70;;;;;;4990962;28;20681;-79
2022/10/19 05:28:55;;;;;;;32.80;17.83;;;10.10;83.90;;;;;;4996843;28;20235;-80
2022/10/19 05:31:25;;;;;;;33.83;22.03;;;10.10;84.20;;;;;;5002322;28;20259;-77
2022/10/19 05:33:54;;;;;;;37.70;19.67;;;10.10;84.70;;;;;;4995149;28;20228;-77
2022/10/19 05:36:26;;;;;;;32.07;17.73;;;10.10;84.80;;;;;;4997758;28;20226;-76
2022/10/19 05:38:57;;;;;;;28.03;16.23;;;10.10;85.20;;;;;;4989987;28;20647;-77
2022/10/19 05:41:26;;;;;;;30.37;17.13;;;10.10;85.10;;;;;;4995264;28;20200;-78
2022/10/19 05:43:56;;;;;;;34.60;17.67;;;10.20;85.50;;;;;;5004373;28;20719;-80
2022/10/19 05:46:25;;;;;;;36.30;16.27;;;10.20;85.80;;;;;;4999621;28;20211;-78
2022/10/19 05:48:55;;;;;;;32.13;15.53;;;10.10;86.40;;;;;;4988748;28;20905;-80
2022/10/19 05:51:27;;;;;;;28.37;15.27;;;10.10;86.50;;;;;;4997149;28;20292;-80
2022/10/19 05:53:56;;;;;;;31.93;16.03;;;10.10;86.40;;;;;;4999384;28;20216;-80
2022/10/19 05:56:26;;;;;;;32.73;16.33;;;10.10;86.80;;;;;;4988564;28;20228;-79
2022/10/19 05:58:56;;;;;;;26.97;15.97;;;10.10;86.90;;;;;;4988065;28;20276;-83
2022/10/19 06:01:25;;;;;;;26.60;15.63;;;10.10;87.20;;;;;;4999413;28;20232;-83
2022/10/19 06:03:55;;;;;;;25.93;14.57;;;10.20;87.20;;;;;;5002794;28;20200;-82
2022/10/19 06:06:26;;;;;;;26.87;15.77;;;10.10;87.20;;;;;;5002686;28;20188;-81
2022/10/19 06:08:57;;;;;;;30.60;14.43;;;10.20;87.50;;;;;;5001323;28;20197;-79
2022/10/19 06:11:27;;;;;;;43.03;18.03;;;10.20;87.60;;;;;;5007234;28;20646;-82
2022/10/19 06:13:58;;;;;;;35.87;16.13;;;10.20;87.50;;;;;;4997858;28;20616;-87
2022/10/19 06:16:27;;;;;;;36.33;16.73;;;10.30;87.50;;;;;;5005168;28;20250;-81
2022/10/19 06:18:56;;;;;;;25.20;13.73;;;10.30;87.50;;;;;;5005821;28;20250;-80
2022/10/19 06:21:28;;;;;;;28.03;14.47;;;10.40;87.40;;;;;;5003988;28;20228;-80
2022/10/19 06:23:58;;;;;;;30.60;12.93;;;10.50;87.70;;;;;;5002726;28;20205;-81
2022/10/19 06:26:27;;;;;;;28.33;13.83;;;10.60;87.80;;;;;;5008792;28;20289;-82
2022/10/19 06:28:59;;;;;;;30.58;16.40;;;10.70;87.70;;;;;;4999805;28;20438;-80
2022/10/19 06:31:27;;;;;;;25.50;14.10;;;10.80;87.70;;;;;;4998491;28;20193;-82
2022/10/19 06:33:55;;;;;;;26.93;14.43;;;10.90;87.50;;;;;;4999197;28;20672;-82
2022/10/19 06:36:28;;;;;;;27.90;13.60;;;11.00;87.20;;;;;;4989452;28;20237;-80
2022/10/19 06:38:58;;;;;;;23.67;13.17;;;11.10;87.10;;;;;;4979487;28;20701;-79
2022/10/19 06:41:27;;;;;;;22.33;12.40;;;11.20;86.90;;;;;;4982115;28;20198;-81
2022/10/19 06:43:56;;;;;;;17.20;10.93;;;11.30;86.60;;;;;;4982347;28;20640;-82
2022/10/19 06:46:25;;;;;;;27.37;12.27;;;11.40;86.50;;;;;;4977458;28;20312;-82
2022/10/19 06:48:55;;;;;;;24.73;11.57;;;11.50;86.20;;;;;;4989146;28;20281;-82
2022/10/19 06:51:27;;;;;;;19.40;10.47;;;11.70;86.10;;;;;;4987431;28;20237;-80
2022/10/19 06:53:55;;;;;;;19.63;10.80;;;11.80;85.80;;;;;;4985587;28;20340;-84
2022/10/19 06:56:25;;;;;;;21.30;11.10;;;11.80;85.20;;;;;;4985599;28;20209;-79
2022/10/19 06:58:54;;;;;;;19.27;10.60;;;12.00;85.10;;;;;;4990624;28;20193;-83
2022/10/19 07:01:22;;;;;;;23.73;10.77;;;12.10;84.80;;;;;;4994928;28;20201;-81
2022/10/19 07:03:52;;;;;;;20.93;10.13;;;12.20;84.50;;;;;;4985969;28;20193;-81
2022/10/19 07:06:21;;;;;;;24.83;11.50;;;12.30;84.40;;;;;;4978096;28;20272;-81
2022/10/19 07:08:52;;;;;;;21.93;11.40;;;12.40;83.90;;;;;;4979328;28;20205;-79
2022/10/19 07:11:22;;;;;;;17.13;10.83;;;12.50;83.60;;;;;;4978687;28;20209;-82
2022/10/19 07:13:52;;;;;;;17.07;10.80;;;12.60;83.20;;;;;;4979359;28;20217;-84
2022/10/19 07:16:20;;;;;;;23.57;10.93;;;12.70;83.00;;;;;;4981563;28;20643;-83
2022/10/19 07:18:50;;;;;;;17.03;10.90;;;12.80;82.50;;;;;;4981153;28;20291;-79
2022/10/19 07:21:20;;;;;;;20.03;10.27;;;12.90;82.40;;;;;;4976561;28;20202;-82
2022/10/19 07:23:50;;;;;;;18.17;9.90;;;13.00;82.10;;;;;;4983120;28;20197;-82
2022/10/19 07:26:22;;;;;;;23.40;9.70;;;13.10;81.70;;;;;;4991946;28;20275;-78
2022/10/19 07:28:51;;;;;;;18.63;9.03;;;13.20;81.30;;;;;;4978768;28;20253;-84
2022/10/19 07:31:21;;;;;;;20.27;10.38;;;13.30;80.30;;;;;;4984077;28;20439;-82
2022/10/19 07:33:53;;;;;;;18.07;8.47;;;13.40;80.10;;;;;;4982458;28;20698;-82
2022/10/19 07:36:22;;;;;;;26.33;9.03;;;13.50;79.80;;;;;;4989401;28;20294;-81
2022/10/19 07:38:52;;;;;;;14.50;7.50;;;13.60;79.20;;;;;;4978332;28;20249;-77
2022/10/19 07:41:23;;;;;;;15.07;7.83;;;13.70;77.90;;;;;;4980865;28;20195;-79
2022/10/19 07:43:52;;;;;;;17.23;8.07;;;13.90;77.90;;;;;;4987125;28;20666;-78
2022/10/19 07:46:24;;;;;;;13.47;6.90;;;14.00;77.00;;;;;;4976614;28;20194;-78
2022/10/19 07:48:53;;;;;;;12.03;6.93;;;14.10;76.10;;;;;;4986957;28;20193;-79
2022/10/19 07:51:22;;;;;;;12.17;6.47;;;14.20;75.50;;;;;;4982429;28;20193;-80
2022/10/19 07:53:52;;;;;;;18.40;7.50;;;14.30;75.60;;;;;;4979082;28;20307;-78
2022/10/19 07:56:22;;;;;;;15.40;7.60;;;14.30;74.50;;;;;;4980642;28;20278;-78
2022/10/19 07:58:52;;;;;;;12.73;6.80;;;14.50;74.40;;;;;;4981550;28;20781;-76
2022/10/19 08:01:22;;;;;;;20.03;6.80;;;14.50;73.70;;;;;;4982752;28;20244;-76
2022/10/19 08:03:53;;;;;;;21.63;8.50;;;14.70;73.40;;;;;;4984343;28;20248;-76
2022/10/19 08:06:41;;;;;;;13.60;6.73;;;14.80;73.40;;;;;;4978533;28;20208;-76
2022/10/19 08:09:11;;;;;;;20.57;6.23;;;14.90;73.60;;;;;;4978359;28;20288;-76
2022/10/19 08:11:54;;;;;;;12.17;5.87;;;15.00;72.70;;;;;;4976207;28;20220;-77
2022/10/19 08:14:23;;;;;;;13.03;5.90;;;15.10;71.90;;;;;;4981497;28;20705;-78
2022/10/19 08:16:51;;;;;;;10.57;5.40;;;15.20;71.20;;;;;;4984912;28;20243;-77
2022/10/19 08:19:21;;;;;;;17.60;5.97;;;15.30;71.60;;;;;;4985922;28;20233;-79
2022/10/19 08:21:50;;;;;;;12.83;5.93;;;15.40;70.40;;;;;;4986344;28;20211;-79
2022/10/19 08:24:20;;;;;;;12.53;6.27;;;15.50;70.50;;;;;;4986097;28;20734;-81
2022/10/19 08:26:50;;;;;;;11.80;5.07;;;15.60;69.20;;;;;;4983542;28;20185;-80
2022/10/19 08:29:20;;;;;;;13.37;5.73;;;15.70;69.50;;;;;;4984697;28;20651;-79
2022/10/19 08:31:49;;;;;;;11.37;5.27;;;15.90;68.90;;;;;;4986525;28;20254;-80
2022/10/19 08:34:17;;;;;;;12.77;5.40;;;15.90;67.70;;;;;;4985554;28;20320;-78
2022/10/19 08:36:46;;;;;;;9.83;4.80;;;16.10;67.80;;;;;;4980783;28;20217;-75
2022/10/19 08:39:16;;;;;;;11.07;5.17;;;16.20;67.30;;;;;;4984755;28;20233;-79
2022/10/19 08:42:01;;;;;;;10.73;4.57;;;16.30;65.30;;;;;;4986473;28;20204;-78
2022/10/19 08:44:58;;;;;;;11.13;5.70;;;16.40;66.20;;;;;;4988033;28;20272;-78
2022/10/19 08:47:42;;;;;;;16.23;5.10;;;16.50;65.50;;;;;;4982788;28;20193;-81
2022/10/19 08:50:19;;;;;;;12.87;4.60;;;16.70;66.10;;;;;;4990186;28;20235;-79
2022/10/19 08:52:51;;;;;;;8.27;4.33;;;16.80;65.60;;;;;;4978467;28;20208;-78
2022/10/19 08:55:26;;;;;;;10.83;5.30;;;16.90;64.00;;;;;;4984672;28;20363;-80
2022/10/19 08:58:03;;;;;;;22.07;5.63;;;17.00;64.10;;;;;;4984797;28;20223;-79
2022/10/19 09:00:41;;;;;;;14.67;5.13;;;17.10;63.30;;;;;;4979898;28;20201;-78
2022/10/19 09:03:18;;;;;;;12.03;5.40;;;17.20;62.20;;;;;;4985625;28;20208;-77
2022/10/19 09:06:19;;;;;;;11.63;5.00;;;17.30;62.00;;;;;;4981215;28;20206;-78
2022/10/19 09:08:48;;;;;;;16.37;5.07;;;17.40;62.10;;;;;;4984351;28;20201;-80
2022/10/19 09:11:20;;;;;;;13.77;5.27;;;17.40;61.60;;;;;;4985715;28;20220;-79
2022/10/19 09:13:50;;;;;;;10.27;4.93;;;17.60;61.50;;;;;;4987914;28;20263;-81
2022/10/19 09:16:33;;;;;;;15.60;4.90;;;17.60;61.10;;;;;;4984097;28;20651;-79
2022/10/19 09:19:02;;;;;;;11.90;5.13;;;17.70;61.30;;;;;;4985826;28;20336;-82
2022/10/19 09:21:39;;;;;;;8.30;4.67;;;17.80;60.70;;;;;;4984852;28;20240;-79
2022/10/19 09:24:24;;;;;;;7.60;4.07;;;17.80;59.90;;;;;;4981522;28;20564;-80
2022/10/19 09:26:56;;;;;;;15.07;5.93;;;17.90;59.70;;;;;;4977789;28;20217;-79
2022/10/19 09:29:30;;;;;;;8.67;4.50;;;18.00;60.30;;;;;;4975551;28;20659;-80
2022/10/19 09:32:01;;;;;;;12.47;5.17;;;18.10;59.80;;;;;;4984023;28;20243;-84
2022/10/19 09:34:36;;;;;;;9.33;4.77;;;18.20;59.40;;;;;;4982188;28;20277;-79
2022/10/19 09:37:04;;;;;;;7.97;4.00;;;18.30;59.10;;;;;;4983349;28;20256;-78
2022/10/19 09:39:34;;;;;;;8.80;4.10;;;18.40;58.80;;;;;;4984078;28;20201;-82
2022/10/19 09:42:10;;;;;;;9.97;4.27;;;18.50;59.20;;;;;;4980459;28;20224;-77
2022/10/19 09:44:40;;;;;;;8.00;3.80;;;18.60;58.70;;;;;;4985218;28;20198;-80
2022/10/19 09:47:39;;;;;;;12.83;4.33;;;18.70;57.90;;;;;;4989679;28;20267;-81
2022/10/19 09:50:20;;;;;;;11.53;4.13;;;18.80;57.90;;;;;;4973317;28;20224;-78
2022/10/19 09:52:49;;;;;;;7.97;4.20;;;18.90;57.60;;;;;;4982109;28;20217;-79
2022/10/19 09:55:27;;;;;;;7.93;4.00;;;19.00;57.40;;;;;;4982182;28;20642;-79
2022/10/19 09:58:02;;;;;;;8.13;4.50;;;19.10;57.60;;;;;;4984400;28;20189;-77
2022/10/19 10:00:41;;;;;;;8.57;3.80;;;19.20;56.70;;;;;;4979671;28;20251;-78
2022/10/19 10:03:23;;;;;;;8.53;4.00;;;19.30;56.80;;;;;;4981525;28;20252;-80
2022/10/19 10:05:52;;;;;;;11.53;4.20;;;19.40;56.00;;;;;;4985343;28;20239;-79
2022/10/19 10:08:24;;;;;;;6.43;3.93;;;19.40;55.40;;;;;;4984501;28;20208;-82
2022/10/19 10:11:03;;;;;;;8.57;4.10;;;19.50;55.90;;;;;;4986027;28;20193;-79
2022/10/19 10:13:35;;;;;;;7.90;4.13;;;19.60;55.10;;;;;;4986888;28;20224;-82
2022/10/19 10:16:08;;;;;;;9.43;3.90;;;19.70;55.60;;;;;;4983876;28;20209;-80
2022/10/19 10:18:39;;;;;;;11.63;4.23;;;19.80;55.70;;;;;;4977689;28;20308;-79
2022/10/19 10:21:14;;;;;;;5.70;3.97;;;19.90;55.80;;;;;;4985932;28;20202;-79
2022/10/19 10:23:42;;;;;;;8.63;3.78;;;19.90;54.90;;;;;;4979415;28;20244;-80
2022/10/19 10:26:20;;;;;;;13.15;5.00;;;20.00;54.90;;;;;;4987614;28;20268;-81
2022/10/19 10:28:49;;;;;;;8.93;3.90;;;20.10;55.40;;;;;;4980882;28;20252;-79
2022/10/19 10:31:24;;;;;;;7.43;3.65;;;20.20;54.50;;;;;;4983232;28;20233;-80
2022/10/19 10:33:56;;;;;;;11.68;4.45;;;20.30;54.60;;;;;;4983259;28;20228;-80
2022/10/19 10:36:38;;;;;;;9.02;4.63;;;20.30;53.50;;;;;;4987067;28;20276;-79
2022/10/19 10:39:08;;;;;;;11.20;4.85;;;20.40;53.90;;;;;;4982634;28;20233;-82
2022/10/19 10:41:40;;;;;;;7.63;3.47;;;20.50;54.20;;;;;;4988034;28;20193;-82
2022/10/19 10:44:18;;;;;;;5.28;3.50;;;20.60;54.50;;;;;;4981820;28;20197;-81
2022/10/19 10:46:54;;;;;;;7.28;3.67;;;20.70;54.30;;;;;;4984446;28;20289;-79
2022/10/19 10:49:26;;;;;;;8.18;3.90;;;20.70;52.70;;;;;;4985057;28;20232;-79
2022/10/19 10:51:57;;;;;;;6.95;3.42;;;20.80;52.50;;;;;;4977776;28;20248;-82
2022/10/19 10:54:27;;;;;;;13.05;3.53;;;20.80;52.70;;;;;;4980461;28;20244;-77
2022/10/19 10:57:05;;;;;;;13.63;4.30;;;20.90;52.40;;;;;;4981918;28;20642;-78
2022/10/19 10:59:38;;;;;;;8.38;3.53;;;20.90;51.90;;;;;;4981084;28;20193;-82
2022/10/19 11:02:26;;;;;;;7.63;3.53;;;21.00;51.70;;;;;;4981866;28;20292;-82
2022/10/19 11:04:59;;;;;;;8.40;3.10;;;21.10;52.40;;;;;;4988169;28;20229;-80
2022/10/19 11:07:30;;;;;;;6.80;3.40;;;21.20;52.50;;;;;;4985995;28;20190;-82
2022/10/19 11:10:01;;;;;;;10.70;3.85;;;21.20;52.00;;;;;;4981366;28;20185;-80
2022/10/19 11:12:35;;;;;;;11.02;4.20;;;21.20;51.60;;;;;;4985573;28;20205;-82
2022/10/19 11:15:15;;;;;;;11.43;3.50;;;21.30;51.90;;;;;;4988702;28;20304;-80
2022/10/19 11:17:53;;;;;;;8.38;4.30;;;21.30;51.40;;;;;;4987921;28;20193;-80
2022/10/19 11:20:25;;;;;;;10.63;4.22;;;21.40;51.30;;;;;;4985381;28;20193;-80
2022/10/19 11:22:57;;;;;;;10.68;4.18;;;21.50;52.00;;;;;;4981800;28;20197;-81
2022/10/19 11:25:35;;;;;;;7.55;3.88;;;21.50;50.60;;;;;;4990047;28;20662;-79
2022/10/19 11:28:22;;;;;;;6.47;3.63;;;21.60;50.90;;;;;;4984643;28;20188;-80
2022/10/19 11:30:59;;;;;;;6.28;3.58;;;21.70;50.80;;;;;;4987417;28;20209;-80
2022/10/19 11:33:41;;;;;;;7.50;3.78;;;21.70;50.30;;;;;;4990360;28;20225;-81
2022/10/19 11:36:29;;;;;;;7.93;3.97;;;21.70;50.30;;;;;;4984567;28;20317;-84
2022/10/19 11:39:12;;;;;;;12.00;3.38;;;21.70;49.80;;;;;;4989270;28;20216;-81
2022/10/19 11:41:51;;;;;;;7.15;3.65;;;21.80;50.40;;;;;;4978456;28;20221;-80
2022/10/19 11:44:37;;;;;;;9.38;3.67;;;21.90;50.30;;;;;;4978550;28;20678;-78
2022/10/19 11:47:28;;;;;;;8.95;3.80;;;21.90;49.90;;;;;;4985879;28;20224;-80
2022/10/19 11:50:09;;;;;;;9.02;3.95;;;22.00;50.00;;;;;;4989470;28;20231;-80
2022/10/19 11:52:45;;;;;;;6.70;3.33;;;22.00;49.90;;;;;;4986893;28;20200;-81
2022/10/19 11:55:32;;;;;;;7.88;3.70;;;22.10;50.40;;;;;;4983613;28;20215;-80
2022/10/19 11:58:08;;;;;;;8.35;3.47;;;22.20;50.20;;;;;;4992994;28;20220;-83
2022/10/19 12:00:46;;;;;;;7.28;3.65;;;22.20;49.70;;;;;;4985330;28;20228;-79
2022/10/19 12:03:40;;;;;;;7.63;3.10;;;22.20;50.20;;;;;;4983613;28;20267;-82
2022/10/19 12:06:17;;;;;;;5.32;3.25;;;22.30;49.90;;;;;;4960763;28;20280;-80
2022/10/19 12:09:01;;;;;;;7.68;3.50;;;22.30;50.10;;;;;;4993591;28;20232;-81
2022/10/19 12:11:41;;;;;;;10.57;3.47;;;22.40;50.10;;;;;;4986182;28;20208;-81
2022/10/19 12:14:13;;;;;;;6.10;3.20;;;22.40;50.10;;;;;;4990326;28;20197;-81
2022/10/19 12:16:48;;;;;;;7.78;2.88;;;22.50;50.50;;;;;;4986479;28;20248;-83
2022/10/19 12:19:20;;;;;;;12.27;3.28;;;22.50;50.70;;;;;;4987646;28;20247;-82
2022/10/19 12:21:51;;;;;;;7.13;3.30;;;22.60;50.80;;;;;;4986851;28;20236;-82
2022/10/19 12:24:23;;;;;;;8.00;3.88;;;22.60;49.50;;;;;;4981177;28;20202;-82
2022/10/19 12:26:53;;;;;;;12.20;3.50;;;22.60;49.40;;;;;;4983335;28;20249;-82
2022/10/19 12:29:24;;;;;;;5.13;2.90;;;22.60;49.70;;;;;;4978983;28;20293;-83
2022/10/19 12:31:55;;;;;;;11.88;3.28;;;22.70;50.20;;;;;;4986449;28;20232;-85
2022/10/19 12:34:32;;;;;;;7.65;3.00;;;22.70;50.50;;;;;;4985950;28;20220;-84
2022/10/19 12:37:12;;;;;;;4.80;2.78;;;22.80;50.90;;;;;;4983524;28;20307;-85
2022/10/19 12:39:49;;;;;;;6.03;3.20;;;22.90;51.00;;;;;;4983096;28;20295;-83
2022/10/19 12:42:24;;;;;;;5.63;3.30;;;23.00;50.60;;;;;;4988233;28;20247;-82
2022/10/19 12:45:18;;;;;;;9.88;3.58;;;23.10;50.40;;;;;;4982356;28;20192;-82
2022/10/19 12:48:19;;;;;;;7.65;2.92;;;23.10;50.00;;;;;;4986505;28;20239;-83
2022/10/19 12:51:16;;;;;;;6.38;2.90;;;23.10;49.80;;;;;;4981752;28;20208;-81
2022/10/19 12:54:08;;;;;;;9.85;3.65;;;23.20;50.10;;;;;;4985346;28;20665;-80
2022/10/19 12:56:48;;;;;;;7.00;3.20;;;23.20;49.30;;;;;;4963363;28;20221;-79
2022/10/19 12:59:24;;;;;;;7.80;2.65;;;23.20;49.00;;;;;;4956470;28;20240;-80
2022/10/19 13:01:53;;;;;;;9.32;3.05;;;23.20;48.90;;;;;;4965426;28;20201;-80